Time;durP1;ratioP1;P1;durP2;ratioP2;P2;SDS_P1;SDS_P2;PMS_P1;PMS_P2;Temp;Humidity;BMP_temperature;BMP_pressure;BME280_temperature;BME280_humidity;BME280_pressure;Samples;Min_cycle;Max_cycle;Signal;HPM_P1;HPM_P2
2022/06/26 00:02:24;;;;;;;1.63;1.13;;;25.30;69.10;;;;;;5064400;28;20032;-61
2022/06/26 00:04:50;;;;;;;3.13;1.70;;;25.20;69.20;;;;;;5063406;28;20057;-61
2022/06/26 00:07:16;;;;;;;2.30;1.20;;;25.30;69.50;;;;;;5056607;28;20029;-62
2022/06/26 00:09:42;;;;;;;5.65;1.60;;;25.20;69.40;;;;;;5062769;28;20464;-61
2022/06/26 00:12:08;;;;;;;3.88;1.73;;;25.20;69.40;;;;;;5062028;28;20396;-61
2022/06/26 00:14:34;;;;;;;3.83;1.70;;;25.20;69.50;;;;;;5063173;28;20039;-61
2022/06/26 00:16:59;;;;;;;8.45;2.22;;;25.20;69.50;;;;;;5053611;28;20045;-61
2022/06/26 00:19:25;;;;;;;3.05;1.90;;;25.20;69.60;;;;;;5061161;28;20042;-61
2022/06/26 00:21:51;;;;;;;2.70;1.90;;;25.20;69.80;;;;;;5063027;28;20474;-62
2022/06/26 00:24:16;;;;;;;8.90;2.10;;;25.10;69.90;;;;;;5045621;28;20025;-61
2022/06/26 00:26:42;;;;;;;5.65;1.65;;;25.10;70.10;;;;;;5037129;28;20035;-61
2022/06/26 00:29:07;;;;;;;2.63;1.63;;;25.00;70.40;;;;;;5034497;28;20033;-62
2022/06/26 00:31:33;;;;;;;4.47;1.92;;;25.00;70.70;;;;;;5058690;28;20037;-61
2022/06/26 00:33:59;;;;;;;3.28;1.55;;;24.90;70.70;;;;;;5060181;28;20105;-61
2022/06/26 00:36:24;;;;;;;4.63;1.95;;;24.90;70.80;;;;;;5056327;28;20055;-61
2022/06/26 00:38:50;;;;;;;5.40;2.28;;;24.80;70.90;;;;;;5059176;28;20063;-62
2022/06/26 00:41:15;;;;;;;2.45;2.00;;;24.80;71.00;;;;;;5062880;28;20035;-61
2022/06/26 00:43:41;;;;;;;5.57;2.67;;;24.80;70.90;;;;;;5059876;28;20528;-61
2022/06/26 00:46:06;;;;;;;5.82;2.72;;;24.80;71.00;;;;;;5059922;28;20109;-61
2022/06/26 00:48:32;;;;;;;3.55;2.60;;;24.80;71.20;;;;;;5055293;28;20102;-61
2022/06/26 00:50:57;;;;;;;3.15;2.60;;;24.80;71.20;;;;;;5059858;28;20119;-61
2022/06/26 00:53:23;;;;;;;5.88;2.78;;;24.80;71.30;;;;;;5062077;28;20060;-61
2022/06/26 00:55:48;;;;;;;4.88;2.60;;;24.70;71.40;;;;;;5016824;28;20048;-62
2022/06/26 00:58:14;;;;;;;5.47;2.58;;;24.70;71.70;;;;;;5060083;28;20043;-61
2022/06/26 01:00:41;;;;;;;3.67;2.50;;;24.60;71.80;;;;;;5060509;28;20469;-62
2022/06/26 01:03:07;;;;;;;3.30;1.90;;;24.60;72.00;;;;;;5061708;28;20032;-61
2022/06/26 01:05:33;;;;;;;1.80;1.70;;;24.60;72.30;;;;;;5064027;28;20028;-62
2022/06/26 01:07:58;;;;;;;6.28;1.80;;;24.60;72.40;;;;;;5044125;28;20033;-61
2022/06/26 01:10:24;;;;;;;4.18;1.83;;;24.60;72.50;;;;;;5061059;28;20097;-62
2022/06/26 01:12:50;;;;;;;2.85;2.17;;;24.50;72.50;;;;;;5062225;28;20051;-62
2022/06/26 01:15:16;;;;;;;2.40;1.90;;;24.50;72.50;;;;;;5062181;28;20033;-61
2022/06/26 01:17:41;;;;;;;2.95;1.80;;;24.50;72.60;;;;;;5061895;28;20048;-62
2022/06/26 01:20:08;;;;;;;3.40;1.83;;;24.50;72.80;;;;;;5061717;28;20420;-61
2022/06/26 01:22:33;;;;;;;5.03;1.90;;;24.50;72.80;;;;;;5043593;28;20471;-61
2022/06/26 01:24:59;;;;;;;3.55;2.05;;;24.50;72.90;;;;;;5056775;28;20135;-61
2022/06/26 01:27:24;;;;;;;4.57;2.00;;;24.50;73.20;;;;;;5059731;28;20044;-62
2022/06/26 01:29:50;;;;;;;2.22;1.63;;;24.40;73.40;;;;;;5060751;28;20036;-61
2022/06/26 01:32:15;;;;;;;2.45;1.70;;;24.40;73.70;;;;;;5060534;28;20036;-62
2022/06/26 01:34:41;;;;;;;4.20;1.70;;;24.30;73.80;;;;;;5043674;28;20032;-62
2022/06/26 01:37:06;;;;;;;4.97;1.77;;;24.30;73.70;;;;;;5040512;28;20480;-62
2022/06/26 01:39:31;;;;;;;3.72;1.90;;;24.30;74.00;;;;;;5062514;28;20139;-62
2022/06/26 01:41:57;;;;;;;3.58;1.80;;;24.30;74.20;;;;;;5060293;28;20028;-61
2022/06/26 01:44:23;;;;;;;6.38;1.60;;;24.30;74.30;;;;;;5060914;28;20107;-61
2022/06/26 01:46:48;;;;;;;5.53;1.85;;;24.20;74.30;;;;;;5043043;28;20033;-62
2022/06/26 01:49:14;;;;;;;5.82;2.50;;;24.20;74.30;;;;;;5045586;28;20148;-62
2022/06/26 01:51:39;;;;;;;4.88;2.42;;;24.20;74.30;;;;;;5061927;28;20115;-61
2022/06/26 01:54:05;;;;;;;2.50;2.30;;;24.20;74.20;;;;;;5059340;28;20095;-62
2022/06/26 01:56:30;;;;;;;5.03;2.33;;;24.10;74.10;;;;;;5059384;28;20052;-61
2022/06/26 01:58:56;;;;;;;6.47;2.10;;;24.20;74.00;;;;;;5062894;28;20412;-62
2022/06/26 02:01:21;;;;;;;4.18;1.92;;;24.20;74.10;;;;;;5045442;28;20043;-62
2022/06/26 02:03:47;;;;;;;2.40;1.63;;;24.20;73.90;;;;;;5061092;28;20039;-61
2022/06/26 02:06:12;;;;;;;2.38;1.58;;;24.10;74.10;;;;;;5057378;28;20468;-62
2022/06/26 02:08:38;;;;;;;2.20;1.80;;;24.10;74.30;;;;;;5062894;28;20089;-62
2022/06/26 02:13:49;;;;;;;2.72;2.13;;;24.00;74.40;;;;;;5057086;28;20094;-62
2022/06/26 02:16:22;;;;;;;5.65;1.88;;;24.00;74.70;;;;;;5062813;28;20758;-61
2022/06/26 02:18:51;;;;;;;3.45;1.95;;;24.00;74.80;;;;;;5056525;28;20048;-62
2022/06/26 02:21:18;;;;;;;3.00;1.77;;;24.00;75.10;;;;;;5029772;28;20313;-62
2022/06/26 02:23:44;;;;;;;2.80;1.85;;;24.00;75.10;;;;;;5050751;28;20020;-62
2022/06/26 02:26:10;;;;;;;2.08;1.70;;;23.90;75.30;;;;;;5028038;28;20028;-62
2022/06/26 02:28:36;;;;;;;2.95;1.85;;;23.90;75.30;;;;;;5055060;28;20480;-62
2022/06/26 02:31:02;;;;;;;2.58;1.83;;;23.90;75.50;;;;;;5011655;28;20029;-61
2022/06/26 02:33:28;;;;;;;2.17;1.40;;;23.90;75.40;;;;;;5049111;28;20787;-61
2022/06/26 02:35:55;;;;;;;2.20;1.58;;;23.80;75.80;;;;;;5047117;28;20072;-62
2022/06/26 02:38:22;;;;;;;1.50;1.40;;;23.80;75.60;;;;;;5049352;28;20025;-61
2022/06/26 02:40:47;;;;;;;1.90;1.48;;;23.80;75.50;;;;;;5012068;28;20021;-62
2022/06/26 02:43:13;;;;;;;3.05;1.75;;;23.80;75.80;;;;;;5044972;28;20471;-61
2022/06/26 02:45:39;;;;;;;2.10;1.67;;;23.80;75.80;;;;;;5030059;28;20132;-62
2022/06/26 02:48:05;;;;;;;2.20;1.60;;;23.80;75.80;;;;;;5030332;28;20055;-62
2022/06/26 02:50:30;;;;;;;5.28;1.90;;;23.70;76.10;;;;;;5050946;28;20558;-62
2022/06/26 02:52:56;;;;;;;4.82;1.60;;;23.70;76.20;;;;;;5056461;28;20032;-61
2022/06/26 02:55:21;;;;;;;2.53;1.38;;;23.70;76.50;;;;;;5050668;28;20056;-62
2022/06/26 02:57:47;;;;;;;2.05;1.58;;;23.60;76.50;;;;;;5047898;28;20125;-61
2022/06/26 03:00:13;;;;;;;2.45;1.55;;;23.60;76.60;;;;;;5031393;28;20040;-61
2022/06/26 03:02:38;;;;;;;2.17;1.20;;;23.60;76.80;;;;;;5033335;28;20025;-61
2022/06/26 03:05:04;;;;;;;1.40;1.10;;;23.60;76.90;;;;;;5048095;28;20083;-62
2022/06/26 03:07:30;;;;;;;2.63;1.40;;;23.60;76.80;;;;;;5030266;28;20021;-62
2022/06/26 03:09:55;;;;;;;2.20;1.23;;;23.60;76.60;;;;;;5041297;28;20041;-61
2022/06/26 03:12:21;;;;;;;1.30;1.20;;;23.50;76.50;;;;;;5060709;28;20110;-62
2022/06/26 03:14:46;;;;;;;1.65;1.13;;;23.50;76.60;;;;;;5030935;28;20028;-61
2022/06/26 03:17:12;;;;;;;1.80;1.27;;;23.50;76.60;;;;;;5052940;28;20478;-62
2022/06/26 03:19:37;;;;;;;1.88;1.40;;;23.50;76.70;;;;;;5047799;28;20471;-61
2022/06/26 03:22:03;;;;;;;1.58;1.30;;;23.50;77.10;;;;;;5046765;28;20409;-61
2022/06/26 03:24:29;;;;;;;5.20;1.25;;;23.40;77.20;;;;;;5028764;28;20508;-61
2022/06/26 03:26:54;;;;;;;2.45;1.10;;;23.40;77.60;;;;;;5052001;28;20028;-61
2022/06/26 03:29:20;;;;;;;1.20;0.80;;;23.40;77.60;;;;;;5047946;28;20094;-63
2022/06/26 03:31:45;;;;;;;2.65;1.42;;;23.30;77.50;;;;;;5058382;28;20392;-61
2022/06/26 03:34:11;;;;;;;1.40;1.20;;;23.30;77.50;;;;;;5050324;28;20052;-62
2022/06/26 03:36:36;;;;;;;2.55;1.27;;;23.30;77.60;;;;;;5053284;28;20052;-61
2022/06/26 03:39:03;;;;;;;3.90;1.23;;;23.30;77.70;;;;;;5047771;28;20025;-62
2022/06/26 03:41:28;;;;;;;2.78;1.15;;;23.30;77.60;;;;;;5031086;28;20103;-61
2022/06/26 03:43:54;;;;;;;2.10;1.20;;;23.30;77.70;;;;;;5053254;28;20029;-62
2022/06/26 03:46:20;;;;;;;1.10;1.00;;;23.20;77.80;;;;;;5046482;28;20025;-61
2022/06/26 03:48:45;;;;;;;1.50;1.08;;;23.30;77.90;;;;;;5031383;28;20041;-61
2022/06/26 03:51:11;;;;;;;2.45;1.13;;;23.20;77.70;;;;;;5047389;28;20036;-62
2022/06/26 03:53:36;;;;;;;2.80;1.25;;;23.20;77.90;;;;;;5047611;28;20071;-61
2022/06/26 03:56:02;;;;;;;1.38;1.17;;;23.20;78.10;;;;;;5047641;28;20082;-62
2022/06/26 03:58:28;;;;;;;1.23;1.13;;;23.10;78.10;;;;;;5048249;28;20713;-62
2022/06/26 04:00:54;;;;;;;3.05;1.13;;;23.10;78.20;;;;;;5045992;28;20086;-62
2022/06/26 04:03:19;;;;;;;3.95;1.40;;;23.10;78.30;;;;;;5049529;28;20086;-61
2022/06/26 04:05:45;;;;;;;1.58;1.10;;;23.10;78.20;;;;;;5046191;28;20043;-62
2022/06/26 04:08:11;;;;;;;3.80;1.42;;;23.10;78.20;;;;;;5013914;28;20032;-62
2022/06/26 04:10:36;;;;;;;2.08;1.08;;;23.10;78.20;;;;;;5047650;28;20227;-62
2022/06/26 04:13:04;;;;;;;1.85;0.90;;;23.10;78.10;;;;;;5043613;28;20036;-62
2022/06/26 04:15:30;;;;;;;3.17;1.05;;;23.10;78.10;;;;;;5046714;28;20086;-62
2022/06/26 04:17:56;;;;;;;1.20;1.10;;;23.00;78.20;;;;;;5048165;28;20036;-61
2022/06/26 04:20:21;;;;;;;2.75;1.10;;;23.00;79.20;;;;;;5052482;28;20381;-62
2022/06/26 04:23:02;;;;;;;3.85;1.05;;;23.00;78.70;;;;;;5052911;28;20024;-61
2022/06/26 04:25:28;;;;;;;1.23;1.10;;;22.90;78.80;;;;;;5052205;28;20595;-62
2022/06/26 04:27:54;;;;;;;2.90;0.90;;;22.90;78.80;;;;;;5026716;28;20452;-61
2022/06/26 04:30:19;;;;;;;2.42;1.10;;;22.90;78.70;;;;;;5057437;28;20028;-61
2022/06/26 04:32:45;;;;;;;3.58;1.00;;;22.90;78.80;;;;;;5042102;28;20037;-61
2022/06/26 04:35:10;;;;;;;2.38;1.02;;;22.90;78.90;;;;;;5056410;28;20124;-61
2022/06/26 04:37:40;;;;;;;1.20;0.90;;;22.90;79.00;;;;;;5045547;28;20066;-62
2022/06/26 04:40:07;;;;;;;3.50;1.05;;;22.90;79.20;;;;;;5042403;28;20060;-62
2022/06/26 04:42:32;;;;;;;3.25;1.02;;;22.80;79.20;;;;;;5047086;28;20041;-62
2022/06/26 04:44:58;;;;;;;1.52;0.95;;;22.80;79.30;;;;;;5037530;28;20412;-61
2022/06/26 04:47:23;;;;;;;2.63;1.00;;;22.80;79.40;;;;;;5050927;28;20033;-61
2022/06/26 04:49:49;;;;;;;0.80;0.80;;;22.80;79.50;;;;;;5043104;28;20241;-61
2022/06/26 04:52:15;;;;;;;3.25;0.95;;;22.80;79.40;;;;;;5046200;28;20472;-62
2022/06/26 04:54:41;;;;;;;1.20;1.00;;;22.80;79.30;;;;;;5050856;28;20314;-61
2022/06/26 04:57:07;;;;;;;1.33;1.05;;;22.80;79.50;;;;;;5050508;28;20423;-61
2022/06/26 04:59:32;;;;;;;1.85;1.00;;;22.80;79.40;;;;;;5048067;28;20043;-62
2022/06/26 05:01:58;;;;;;;1.40;0.90;;;22.80;79.40;;;;;;5055281;28;20479;-62
2022/06/26 05:04:23;;;;;;;1.58;0.90;;;22.80;79.50;;;;;;5047695;28;20772;-61
2022/06/26 05:06:49;;;;;;;3.10;0.93;;;22.70;79.50;;;;;;5045788;28;20037;-61
2022/06/26 05:09:14;;;;;;;1.15;0.85;;;22.70;79.50;;;;;;5027138;28;20039;-62
2022/06/26 05:11:41;;;;;;;2.60;0.88;;;22.70;79.50;;;;;;5044080;28;20031;-61
2022/06/26 05:14:07;;;;;;;3.05;1.00;;;22.80;79.70;;;;;;5049910;28;20025;-62
2022/06/26 05:16:33;;;;;;;1.30;0.90;;;22.70;79.70;;;;;;5049965;28;20114;-61
2022/06/26 05:18:58;;;;;;;1.83;0.90;;;22.70;79.80;;;;;;5048183;28;20047;-62
2022/06/26 05:21:24;;;;;;;2.75;0.80;;;22.70;79.80;;;;;;5050398;28;20140;-61
2022/06/26 05:23:49;;;;;;;0.98;0.80;;;22.70;80.50;;;;;;5041911;28;20033;-61
2022/06/26 05:26:15;;;;;;;1.42;1.00;;;22.70;80.00;;;;;;5049498;28;20032;-61
2022/06/26 05:28:41;;;;;;;2.70;1.00;;;22.70;80.00;;;;;;5043321;28;20036;-60
2022/06/26 05:31:06;;;;;;;1.58;1.05;;;22.70;80.00;;;;;;5043202;28;20368;-61
2022/06/26 05:33:32;;;;;;;1.25;1.00;;;22.60;80.00;;;;;;5025469;28;20178;-61
2022/06/26 05:35:57;;;;;;;1.15;0.90;;;22.60;80.00;;;;;;5052051;28;20107;-61
2022/06/26 05:38:23;;;;;;;0.98;0.77;;;22.60;80.00;;;;;;5051698;28;20036;-61
2022/06/26 05:40:48;;;;;;;1.30;0.90;;;22.60;80.10;;;;;;5048670;28;20279;-62
2022/06/26 05:43:14;;;;;;;2.25;0.80;;;22.60;80.20;;;;;;5048053;28;20029;-62
2022/06/26 05:45:39;;;;;;;2.22;0.93;;;22.60;80.10;;;;;;5044335;28;20044;-61
2022/06/26 05:48:06;;;;;;;1.08;0.73;;;22.60;80.00;;;;;;5042794;28;20136;-61
2022/06/26 05:50:32;;;;;;;1.05;0.90;;;22.70;80.00;;;;;;5049753;28;20493;-61
2022/06/26 05:52:57;;;;;;;1.48;0.93;;;22.60;79.70;;;;;;5053180;28;20084;-62
2022/06/26 05:55:23;;;;;;;1.08;0.82;;;22.60;79.70;;;;;;5048654;28;20017;-61
2022/06/26 05:57:48;;;;;;;1.90;1.20;;;22.60;79.70;;;;;;5045812;28;20079;-61
2022/06/26 06:00:14;;;;;;;1.58;1.00;;;22.60;80.00;;;;;;5049924;28;20047;-61
2022/06/26 06:02:40;;;;;;;1.10;0.90;;;22.60;80.30;;;;;;5046410;28;20461;-61
2022/06/26 06:05:06;;;;;;;0.85;0.70;;;22.60;80.50;;;;;;5043712;28;20043;-62
2022/06/26 06:07:31;;;;;;;1.67;0.73;;;22.60;80.60;;;;;;5043904;28;20064;-62
2022/06/26 06:09:57;;;;;;;1.00;0.80;;;22.60;80.50;;;;;;5049902;28;20417;-61
2022/06/26 06:12:22;;;;;;;1.13;0.68;;;22.60;80.50;;;;;;5044487;28;20525;-62
2022/06/26 06:14:48;;;;;;;4.30;1.05;;;22.60;80.60;;;;;;5045561;28;20079;-61
2022/06/26 06:19:57;;;;;;;1.08;0.93;;;22.60;80.70;;;;;;5062901;28;20128;-61
2022/06/26 06:22:23;;;;;;;1.52;1.00;;;22.60;80.70;;;;;;5062456;28;20104;-61
2022/06/26 06:24:48;;;;;;;0.95;0.77;;;22.60;80.80;;;;;;5061437;28;20125;-61
2022/06/26 06:27:14;;;;;;;0.93;0.60;;;22.50;80.70;;;;;;5042685;28;20032;-61
2022/06/26 06:29:39;;;;;;;1.00;0.90;;;22.60;80.80;;;;;;5060713;28;20505;-61
2022/06/26 06:32:05;;;;;;;1.23;0.80;;;22.50;80.80;;;;;;5044947;28;20050;-63
2022/06/26 06:34:31;;;;;;;2.20;1.00;;;22.50;80.80;;;;;;5061799;28;20067;-61
2022/06/26 06:36:56;;;;;;;2.35;0.82;;;22.50;80.80;;;;;;5042942;28;20041;-61
2022/06/26 06:39:22;;;;;;;2.33;0.85;;;22.50;80.80;;;;;;5061473;28;20051;-61
2022/06/26 06:41:47;;;;;;;1.42;0.90;;;22.60;81.00;;;;;;5045104;28;20055;-61
2022/06/26 06:44:13;;;;;;;1.02;0.70;;;22.50;80.90;;;;;;5043542;28;20064;-62
2022/06/26 06:46:38;;;;;;;1.23;0.82;;;22.50;80.90;;;;;;5061090;28;20052;-61
2022/06/26 06:49:04;;;;;;;1.10;0.85;;;22.50;80.70;;;;;;5061426;28;20472;-62
2022/06/26 06:51:30;;;;;;;1.27;0.70;;;22.60;80.70;;;;;;5042360;28;20029;-61
2022/06/26 06:53:55;;;;;;;1.48;0.82;;;22.50;80.80;;;;;;5044271;28;20033;-61
2022/06/26 06:56:21;;;;;;;0.80;0.65;;;22.50;81.10;;;;;;5044096;28;20029;-61
2022/06/26 06:58:46;;;;;;;1.38;1.05;;;22.50;81.20;;;;;;5062688;28;20039;-61
2022/06/26 07:01:12;;;;;;;1.45;0.85;;;22.50;81.30;;;;;;5060649;28;20494;-61
2022/06/26 07:03:39;;;;;;;1.10;0.93;;;22.50;81.30;;;;;;5059936;28;20069;-61
2022/06/26 07:06:04;;;;;;;2.40;0.68;;;22.50;81.40;;;;;;5061542;28;20025;-62
2022/06/26 07:08:30;;;;;;;1.02;0.70;;;22.50;81.40;;;;;;5062901;28;20039;-61
2022/06/26 07:10:55;;;;;;;1.20;0.73;;;22.50;81.40;;;;;;5044666;28;20032;-62
2022/06/26 07:13:21;;;;;;;3.10;1.10;;;22.50;81.40;;;;;;5042982;28;20047;-61
2022/06/26 07:15:47;;;;;;;2.58;0.70;;;22.50;81.40;;;;;;5022928;28;20048;-62
2022/06/26 07:18:13;;;;;;;1.25;0.90;;;22.50;81.50;;;;;;5041216;28;20053;-62
2022/06/26 07:20:39;;;;;;;1.52;0.90;;;22.50;81.50;;;;;;5041053;28;20382;-62
2022/06/26 07:23:04;;;;;;;1.25;1.00;;;22.50;81.50;;;;;;5044210;28;20043;-61
2022/06/26 07:25:30;;;;;;;2.70;0.90;;;22.50;81.40;;;;;;5042238;28;20108;-61
2022/06/26 07:27:55;;;;;;;2.38;1.00;;;22.60;81.40;;;;;;5039190;28;20033;-61
2022/06/26 07:30:21;;;;;;;2.22;0.80;;;22.60;81.50;;;;;;5040568;28;20500;-61
2022/06/26 07:32:46;;;;;;;3.47;0.98;;;22.60;81.30;;;;;;5045747;28;20040;-61
2022/06/26 07:35:12;;;;;;;4.30;0.98;;;22.60;81.40;;;;;;5045492;28;20067;-61
2022/06/26 07:37:37;;;;;;;1.55;0.77;;;22.60;81.00;;;;;;5043224;28;20114;-61
2022/06/26 07:40:04;;;;;;;2.55;0.90;;;22.70;80.50;;;;;;5042992;28;20534;-61
2022/06/26 07:42:30;;;;;;;0.98;0.88;;;22.70;81.10;;;;;;5043765;28;20036;-61
2022/06/26 07:44:55;;;;;;;3.58;1.20;;;22.80;81.30;;;;;;5042130;28;20036;-62
2022/06/26 07:47:21;;;;;;;1.08;0.77;;;22.80;81.50;;;;;;5044980;28;20029;-61
2022/06/26 07:49:46;;;;;;;1.98;0.80;;;22.80;81.60;;;;;;5045924;28;20029;-61
2022/06/26 07:52:12;;;;;;;1.13;0.80;;;22.80;81.70;;;;;;5043997;28;20029;-62
2022/06/26 07:54:37;;;;;;;1.55;0.85;;;22.80;81.70;;;;;;5044183;28;20029;-62
2022/06/26 07:57:03;;;;;;;2.25;0.75;;;22.80;81.70;;;;;;5040813;28;20071;-62
2022/06/26 07:59:29;;;;;;;1.83;0.85;;;23.00;81.70;;;;;;5043493;28;20051;-62
2022/06/26 08:01:54;;;;;;;2.15;0.90;;;22.90;81.60;;;;;;5043899;28;20086;-64
2022/06/26 08:04:20;;;;;;;1.25;0.77;;;22.90;81.60;;;;;;5043527;28;20074;-61
2022/06/26 08:06:45;;;;;;;4.13;0.88;;;22.90;81.70;;;;;;5042816;28;20414;-62
2022/06/26 08:09:11;;;;;;;4.68;1.10;;;23.00;82.10;;;;;;5043378;28;20033;-61
2022/06/26 08:11:36;;;;;;;4.07;0.70;;;23.00;82.90;;;;;;5042338;28;20123;-61
2022/06/26 08:14:02;;;;;;;3.33;0.90;;;23.00;82.30;;;;;;5038567;28;20036;-62
2022/06/26 08:16:27;;;;;;;7.18;1.25;;;23.00;82.50;;;;;;5046079;28;20445;-61
2022/06/26 08:18:53;;;;;;;12.68;1.88;;;23.00;82.50;;;;;;5041342;28;20557;-61
2022/06/26 08:24:03;;;;;;;6.93;1.38;;;23.00;83.30;;;;;;5044688;28;20098;-62
2022/06/26 08:26:28;;;;;;;11.88;2.08;;;23.00;83.60;;;;;;5047232;28;20021;-62
2022/06/26 08:28:54;;;;;;;12.85;2.67;;;23.10;83.60;;;;;;5046844;28;20029;-62
2022/06/26 08:31:19;;;;;;;56.47;7.57;;;23.10;85.00;;;;;;5029215;28;20456;-61
2022/06/26 08:33:45;;;;;;;32.20;4.45;;;23.10;84.30;;;;;;5046033;28;20110;-61
2022/06/26 08:36:10;;;;;;;22.17;2.80;;;23.10;84.40;;;;;;5042797;28;20372;-61
2022/06/26 08:38:36;;;;;;;16.92;3.47;;;23.10;84.40;;;;;;5041455;28;20627;-61
2022/06/26 08:41:01;;;;;;;38.88;4.47;;;23.20;84.40;;;;;;5055978;28;20403;-61
2022/06/26 08:43:27;;;;;;;54.97;6.30;;;23.20;84.20;;;;;;5041689;28;20028;-62
2022/06/26 08:45:53;;;;;;;36.92;4.40;;;23.20;84.10;;;;;;5043747;28;20029;-62
2022/06/26 08:48:19;;;;;;;32.75;4.75;;;23.30;84.20;;;;;;5025760;28;20025;-61
2022/06/26 08:50:45;;;;;;;27.63;4.18;;;23.30;83.90;;;;;;5042191;28;20040;-62
2022/06/26 08:53:10;;;;;;;37.35;4.38;;;23.30;83.70;;;;;;5023845;28;20131;-62
2022/06/26 08:55:36;;;;;;;54.58;7.13;;;23.40;83.60;;;;;;5046628;28;20541;-62
2022/06/26 08:58:01;;;;;;;35.75;4.85;;;23.40;83.70;;;;;;5039090;28;20327;-61
2022/06/26 09:00:27;;;;;;;54.80;5.80;;;23.50;83.20;;;;;;5027673;28;20040;-62
2022/06/26 09:02:52;;;;;;;36.35;5.03;;;23.50;83.00;;;;;;5025650;28;20158;-61
2022/06/26 09:05:18;;;;;;;62.45;7.93;;;23.60;82.80;;;;;;5028772;28;20503;-62
2022/06/26 09:07:48;;;;;;;215.73;20.80;;;23.60;83.00;;;;;;5036821;28;20219;-62
2022/06/26 09:10:16;;;;;;;128.25;13.40;;;23.60;83.70;;;;;;5028097;28;20027;-61
2022/06/26 09:12:41;;;;;;;87.57;9.93;;;23.70;83.70;;;;;;5023901;28;20039;-62
2022/06/26 09:15:07;;;;;;;108.07;11.10;;;23.70;83.50;;;;;;5041774;28;20052;-61
2022/06/26 09:17:33;;;;;;;108.05;11.68;;;23.70;83.60;;;;;;5012840;28;20122;-61
2022/06/26 09:19:58;;;;;;;75.30;8.80;;;23.70;83.80;;;;;;5053494;28;20097;-61
2022/06/26 09:22:24;;;;;;;149.35;15.00;;;23.80;83.50;;;;;;5054647;28;20021;-62
2022/06/26 09:24:58;;;;;;;164.02;15.95;;;23.80;83.60;;;;;;5052369;28;20021;-61
2022/06/26 09:27:23;;;;;;;124.40;13.07;;;23.90;84.00;;;;;;5048264;28;20084;-61
2022/06/26 09:29:53;;;;;;;102.22;12.48;;;24.00;83.80;;;;;;5034919;28;20123;-62
2022/06/26 09:32:19;;;;;;;95.97;11.85;;;24.10;83.70;;;;;;5041455;28;20128;-62
2022/06/26 09:34:46;;;;;;;150.98;15.30;;;24.10;83.90;;;;;;5040998;28;20444;-61
2022/06/26 09:37:12;;;;;;;163.93;17.42;;;24.00;83.80;;;;;;5025105;28;20040;-61
2022/06/26 09:39:38;;;;;;;135.40;13.45;;;24.00;83.00;;;;;;5021143;28;20551;-62
2022/06/26 09:42:19;;;;;;;112.03;14.57;;;24.00;83.20;;;;;;5053087;28;20064;-61
2022/06/26 09:44:45;;;;;;;115.57;13.07;;;24.10;83.20;;;;;;5041650;28;20119;-61
2022/06/26 09:47:24;;;;;;;138.85;13.25;;;24.10;83.60;;;;;;5049103;28;20060;-61
2022/06/26 09:49:51;;;;;;;92.72;11.13;;;24.10;83.10;;;;;;5059497;28;20025;-61
2022/06/26 09:52:18;;;;;;;98.95;11.77;;;24.10;83.60;;;;;;5041983;28;20379;-60
2022/06/26 09:54:44;;;;;;;85.30;9.85;;;24.10;83.80;;;;;;5039325;28;20463;-61
2022/06/26 09:57:10;;;;;;;92.32;10.55;;;24.10;83.70;;;;;;5020491;28;20028;-60
2022/06/26 09:59:35;;;;;;;102.68;11.48;;;24.20;83.60;;;;;;5036486;28;20098;-60
2022/06/26 10:07:29;;;;;;;80.80;10.20;;;24.30;83.50;;;;;;5035411;28;20078;-60
2022/06/26 10:09:55;;;;;;;88.63;10.10;;;24.30;83.10;;;;;;5014474;28;20032;-60
2022/06/26 10:12:20;;;;;;;78.75;9.30;;;24.30;83.50;;;;;;5024087;28;20029;-60
2022/06/26 10:14:50;;;;;;;76.85;11.23;;;24.40;83.70;;;;;;5011955;28;20036;-61
2022/06/26 10:17:35;;;;;;;101.10;9.75;;;24.40;83.40;;;;;;5051785;28;20098;-60
2022/06/26 10:20:08;;;;;;;100.53;12.77;;;24.40;84.20;;;;;;5056934;28;20075;-61
2022/06/26 10:22:40;;;;;;;100.70;10.20;;;24.40;84.20;;;;;;5041308;28;20814;-61
2022/06/26 10:25:06;;;;;;;91.82;11.63;;;24.50;83.90;;;;;;5024578;28;20036;-61
2022/06/26 10:27:32;;;;;;;97.00;11.55;;;24.50;83.40;;;;;;5058066;28;20611;-60
2022/06/26 10:30:15;;;;;;;102.95;11.50;;;24.50;83.30;;;;;;5041217;28;20148;-60
2022/06/26 10:32:40;;;;;;;100.18;11.57;;;24.60;83.00;;;;;;5038688;28;21097;-60
2022/06/26 10:35:07;;;;;;;116.88;11.73;;;24.60;83.00;;;;;;5031737;28;20036;-61
2022/06/26 10:37:45;;;;;;;120.97;13.10;;;24.60;83.00;;;;;;5038911;28;20029;-61
2022/06/26 10:43:02;;;;;;;91.60;12.43;;;24.70;82.80;;;;;;5027634;28;20405;-61
2022/06/26 10:45:29;;;;;;;104.38;11.68;;;24.80;82.90;;;;;;5054072;28;20041;-61
2022/06/26 10:47:56;;;;;;;101.53;12.43;;;24.80;82.40;;;;;;5059553;28;20021;-61
2022/06/26 10:50:22;;;;;;;99.78;10.05;;;24.90;82.20;;;;;;5055764;28;20040;-61
2022/06/26 10:52:47;;;;;;;83.68;10.73;;;24.90;82.50;;;;;;5059529;28;20035;-61
2022/06/26 10:55:13;;;;;;;72.90;8.25;;;24.90;81.60;;;;;;5008173;28;23948;-61
2022/06/26 10:57:39;;;;;;;95.80;9.82;;;25.00;80.80;;;;;;5040929;28;20512;-61
2022/06/26 11:00:13;;;;;;;100.63;10.52;;;25.00;80.40;;;;;;5058686;28;21158;-60
2022/06/26 11:02:44;;;;;;;122.37;12.10;;;25.10;80.10;;;;;;5018815;28;20450;-61
2022/06/26 11:05:10;;;;;;;144.90;13.80;;;25.10;80.10;;;;;;5018384;28;20417;-61
2022/06/26 11:07:46;;;;;;;118.32;13.45;;;25.20;80.00;;;;;;5062321;28;20039;-61
2022/06/26 11:10:15;;;;;;;101.70;10.13;;;25.30;79.90;;;;;;5056540;28;20035;-61
2022/06/26 11:12:42;;;;;;;181.02;18.05;;;25.40;79.70;;;;;;5062777;28;20055;-61
2022/06/26 11:15:19;;;;;;;76.82;9.68;;;25.50;79.30;;;;;;5042059;28;20028;-61
2022/06/26 11:17:53;;;;;;;76.68;9.48;;;25.50;78.90;;;;;;5026117;28;20603;-60
2022/06/26 11:23:14;;;;;;;82.18;9.73;;;25.60;78.50;;;;;;5027281;28;20542;-61
2022/06/26 11:25:41;;;;;;;57.65;7.75;;;25.70;78.00;;;;;;5023714;28;20644;-61
2022/06/26 11:28:08;;;;;;;85.22;9.98;;;25.80;77.70;;;;;;5038959;28;20108;-61
2022/06/26 11:30:37;;;;;;;79.07;9.95;;;25.90;77.30;;;;;;5024083;28;20460;-61
2022/06/26 11:33:04;;;;;;;69.85;8.00;;;26.00;76.70;;;;;;5040016;28;20457;-61
2022/06/26 11:35:29;;;;;;;56.67;7.63;;;26.10;76.50;;;;;;5018192;28;20037;-61
2022/06/26 11:37:55;;;;;;;44.63;6.18;;;26.20;76.20;;;;;;5037463;28;20931;-62
2022/06/26 11:40:22;;;;;;;34.95;5.40;;;26.20;75.60;;;;;;5023482;28;20049;-61
2022/06/26 11:42:55;;;;;;;37.17;5.28;;;26.40;75.40;;;;;;5025396;28;20025;-61
2022/06/26 11:45:24;;;;;;;33.70;5.50;;;26.40;75.00;;;;;;5024768;28;20106;-61
2022/06/26 11:47:50;;;;;;;48.38;6.13;;;26.50;74.70;;;;;;5043577;28;20148;-61
2022/06/26 11:50:24;;;;;;;51.38;7.20;;;26.60;74.50;;;;;;5043682;28;20838;-61
2022/06/26 11:52:56;;;;;;;57.85;6.85;;;26.60;74.40;;;;;;5017868;28;20051;-61
2022/06/26 11:55:21;;;;;;;46.58;6.32;;;26.70;74.60;;;;;;5020583;28;20036;-61
2022/06/26 11:57:48;;;;;;;43.15;5.22;;;26.70;74.10;;;;;;5005860;28;20082;-61
2022/06/26 12:00:15;;;;;;;30.20;4.22;;;26.80;74.00;;;;;;5023455;28;20045;-61
2022/06/26 12:02:45;;;;;;;36.00;4.90;;;26.90;73.40;;;;;;5021395;28;20122;-60
2022/06/26 12:05:10;;;;;;;32.03;4.72;;;26.90;73.20;;;;;;5004421;28;20469;-61
2022/06/26 12:07:45;;;;;;;39.85;5.30;;;27.00;73.00;;;;;;5008303;28;20036;-61
2022/06/26 12:10:10;;;;;;;45.67;5.03;;;27.00;72.60;;;;;;5024046;28;20029;-61
2022/06/26 12:12:36;;;;;;;35.33;6.35;;;27.20;72.80;;;;;;5019704;28;20100;-62
2022/06/26 12:15:01;;;;;;;37.17;5.57;;;27.20;72.50;;;;;;5006517;28;20041;-61
2022/06/26 12:17:28;;;;;;;66.20;8.27;;;27.20;72.30;;;;;;5049707;28;20057;-61
2022/06/26 12:19:54;;;;;;;54.63;6.95;;;27.30;72.20;;;;;;5036752;28;20025;-61
2022/06/26 12:22:31;;;;;;;57.30;7.20;;;27.40;72.30;;;;;;5035053;28;20032;-61
2022/06/26 12:24:56;;;;;;;57.47;7.05;;;27.50;72.40;;;;;;5042902;28;20638;-61
2022/06/26 12:27:39;;;;;;;47.08;6.28;;;27.50;72.20;;;;;;5053518;28;20116;-61
2022/06/26 12:30:17;;;;;;;72.43;8.68;;;27.60;71.90;;;;;;5023360;28;20052;-61
2022/06/26 12:32:43;;;;;;;109.55;9.88;;;27.70;72.00;;;;;;5053786;28;20090;-61
2022/06/26 12:35:08;;;;;;;54.05;7.82;;;27.70;71.90;;;;;;5047442;28;20680;-61
2022/06/26 12:37:34;;;;;;;58.08;6.75;;;27.80;71.60;;;;;;5044050;28;20664;-63
2022/06/26 12:39:59;;;;;;;58.85;7.05;;;27.90;71.50;;;;;;5042486;28;20901;-61
2022/06/26 12:42:25;;;;;;;77.90;9.48;;;27.90;71.00;;;;;;5040508;28;20640;-61
2022/06/26 12:44:50;;;;;;;76.78;8.27;;;28.00;70.90;;;;;;5051047;28;20044;-61
2022/06/26 12:47:16;;;;;;;35.10;5.47;;;28.00;70.90;;;;;;5048968;28;20029;-61
2022/06/26 12:49:41;;;;;;;34.30;4.60;;;28.00;70.30;;;;;;5049374;28;20060;-63
2022/06/26 12:52:07;;;;;;;52.05;6.05;;;28.10;69.90;;;;;;5045815;28;20139;-63
2022/06/26 12:54:33;;;;;;;42.22;4.57;;;28.20;69.60;;;;;;5045486;28;20473;-63
2022/06/26 12:56:58;;;;;;;33.75;5.18;;;28.20;69.30;;;;;;5047022;28;20044;-63